Time;durP1;ratioP1;P1;durP2;ratioP2;P2;SDS_P1;SDS_P2;PMS_P1;PMS_P2;Temp;Humidity;BMP_temperature;BMP_pressure;BME280_temperature;BME280_humidity;BME280_pressure;Samples;Min_cycle;Max_cycle;Signal;HPM_P1;HPM_P2
2022/08/26 00:01:45;;;;;;;;;;;;;;;20.70;100.00;101444.97;5020977;28;19944;-45
2022/08/26 00:04:11;;;;;;;;;;;;;;;20.65;100.00;101440.16;5033592;28;19916;-49
2022/08/26 00:06:36;;;;;;;;;;;;;;;20.62;100.00;101449.59;5035471;28;20341;-47
2022/08/26 00:09:02;;;;;;;;;;;;;;;20.59;100.00;101449.16;5035896;28;20104;-46
2022/08/26 00:11:28;;;;;;;;;;;;;;;20.52;100.00;101459.16;5035061;28;19962;-47
2022/08/26 00:13:53;;;;;;;;;;;;;;;20.53;100.00;101460.84;5035493;28;20315;-44
2022/08/26 00:16:18;;;;;;;;;;;;;;;20.46;100.00;101461.69;5033447;28;19947;-47
2022/08/26 00:18:44;;;;;;;;;;;;;;;20.49;100.00;101449.59;5034086;28;19908;-47
2022/08/26 00:21:09;;;;;;;;;;;;;;;20.44;100.00;101457.53;5032578;28;20200;-45
2022/08/26 00:23:35;;;;;;;;;;;;;;;20.38;100.00;101452.94;5035569;28;19909;-46
2022/08/26 00:26:01;;;;;;;;;;;;;;;20.37;100.00;101457.53;5039156;28;19920;-45
2022/08/26 00:28:26;;;;;;;;;;;;;;;20.40;100.00;101457.13;5039193;28;19909;-44
2022/08/26 00:30:51;;;;;;;;;;;;;;;20.42;100.00;101455.03;5037860;28;19913;-48
2022/08/26 00:33:18;;;;;;;;;;;;;;;20.45;100.00;101456.47;5038055;28;20319;-44
2022/08/26 00:35:44;;;;;;;;;;;;;;;20.40;100.00;101454.41;5037573;28;20079;-44
2022/08/26 00:38:09;;;;;;;;;;;;;;;20.41;100.00;101453.34;5038903;28;19954;-45
2022/08/26 00:40:37;;;;;;;;;;;;;;;20.42;100.00;101460.44;5039057;28;19905;-47
2022/08/26 00:43:03;;;;;;;;;;;;;;;20.43;100.00;101450.41;5029368;28;20356;-45
2022/08/26 00:45:40;;;;;;;;;;;;;;;20.44;100.00;101447.50;5018458;28;19913;-47
2022/08/26 00:48:06;;;;;;;;;;;;;;;20.45;100.00;101454.59;5016154;28;20371;-47
2022/08/26 00:50:37;;;;;;;;;;;;;;;20.42;100.00;101452.31;5017401;28;19913;-46
2022/08/26 00:53:20;;;;;;;;;;;;;;;20.43;100.00;101455.84;5018831;28;20021;-44
2022/08/26 00:55:45;;;;;;;;;;;;;;;20.42;100.00;101456.91;5019156;28;20256;-44
2022/08/26 00:58:10;;;;;;;;;;;;;;;20.41;100.00;101463.38;5017850;28;20165;-43
2022/08/26 01:00:35;;;;;;;;;;;;;;;20.40;100.00;101470.69;5018166;28;19909;-45
2022/08/26 01:03:01;;;;;;;;;;;;;;;20.42;100.00;101454.19;5016207;28;19928;-46
2022/08/26 01:05:27;;;;;;;;;;;;;;;20.53;100.00;101460.84;5017846;28;20136;-46
2022/08/26 01:07:53;;;;;;;;;;;;;;;20.52;100.00;101459.16;5018263;28;19909;-50
2022/08/26 01:10:20;;;;;;;;;;;;;;;20.50;100.00;101464.78;5018110;28;20488;-46
2022/08/26 01:12:47;;;;;;;;;;;;;;;20.53;100.00;101467.09;5018384;28;19908;-47
2022/08/26 01:15:16;;;;;;;;;;;;;;;20.50;100.00;101468.38;5015681;28;19920;-46
2022/08/26 01:17:41;;;;;;;;;;;;;;;20.54;100.00;101468.78;5016380;28;20009;-47
2022/08/26 01:20:21;;;;;;;;;;;;;;;20.54;100.00;101460.63;5017253;28;20083;-46
2022/08/26 01:22:52;;;;;;;;;;;;;;;20.54;100.00;101467.94;5018570;28;19905;-46
2022/08/26 01:25:18;;;;;;;;;;;;;;;20.55;100.00;101461.44;5018781;28;20003;-46
2022/08/26 01:27:43;;;;;;;;;;;;;;;20.56;100.00;101466.66;5018641;28;20453;-47
2022/08/26 01:30:10;;;;;;;;;;;;;;;20.60;100.00;101461.66;5017728;28;19971;-46
2022/08/26 01:32:36;;;;;;;;;;;;;;;20.66;100.00;101460.84;5015930;28;19913;-49
2022/08/26 01:35:02;;;;;;;;;;;;;;;20.61;100.00;101453.28;5018405;28;19969;-44
2022/08/26 01:37:31;;;;;;;;;;;;;;;20.58;100.00;101458.31;5016986;28;19908;-47
2022/08/26 01:39:56;;;;;;;;;;;;;;;20.57;100.00;101459.34;5019067;28;19908;-47
2022/08/26 01:42:23;;;;;;;;;;;;;;;20.55;100.00;101456.03;5018392;28;19971;-46
2022/08/26 01:44:50;;;;;;;;;;;;;;;20.52;100.00;101457.31;5017871;28;20170;-44
2022/08/26 01:47:16;;;;;;;;;;;;;;;20.53;100.00;101460.84;5015983;28;20410;-44
2022/08/26 01:49:42;;;;;;;;;;;;;;;20.55;100.00;101459.56;5017100;28;19916;-47
2022/08/26 01:52:09;;;;;;;;;;;;;;;20.51;100.00;101461.03;5016113;28;20875;-46
2022/08/26 01:54:34;;;;;;;;;;;;;;;20.53;100.00;101460.84;5029931;28;19919;-47
2022/08/26 01:57:00;;;;;;;;;;;;;;;20.55;100.00;101462.28;5035544;28;19909;-47
2022/08/26 01:59:25;;;;;;;;;;;;;;;20.56;100.00;101463.13;5033361;28;21545;-46
2022/08/26 02:01:51;;;;;;;;;;;;;;;20.56;100.00;101460.41;5040191;28;20251;-45
2022/08/26 02:04:20;;;;;;;;;;;;;;;20.54;100.00;101460.63;5034440;28;19924;-47
2022/08/26 02:06:46;;;;;;;;;;;;;;;20.55;100.00;101459.56;5035460;28;19915;-43
2022/08/26 02:09:12;;;;;;;;;;;;;;;20.56;100.00;101457.72;5035580;28;19920;-48
2022/08/26 02:11:37;;;;;;;;;;;;;;;20.59;100.00;101451.84;5031426;28;20153;-47
2022/08/26 02:14:04;;;;;;;;;;;;;;;20.54;100.00;101452.50;5034771;28;20438;-43
2022/08/26 02:16:33;;;;;;;;;;;;;;;20.49;100.00;101457.72;5033514;28;20015;-45
2022/08/26 02:18:59;;;;;;;;;;;;;;;20.42;100.00;101456.91;5034883;28;20375;-45
2022/08/26 02:21:24;;;;;;;;;;;;;;;20.43;100.00;101456.66;5033726;28;20015;-49
2022/08/26 02:23:50;;;;;;;;;;;;;;;20.42;100.00;101462.34;5035568;28;20011;-45
2022/08/26 02:26:17;;;;;;;;;;;;;;;20.33;100.00;101455.44;5034417;28;20205;-46
2022/08/26 02:28:49;;;;;;;;;;;;;;;20.28;100.00;101462.34;5031651;28;20059;-47
2022/08/26 02:31:14;;;;;;;;;;;;;;;20.23;100.00;101470.28;5033385;28;20411;-44
2022/08/26 02:33:39;;;;;;;;;;;;;;;20.18;100.00;101477.34;5027719;28;19909;-47
2022/08/26 02:36:05;;;;;;;;;;;;;;;20.17;100.00;101478.41;5016458;28;20412;-47
2022/08/26 02:38:30;;;;;;;;;;;;;;;20.16;100.00;101476.75;5017474;28;19915;-46
2022/08/26 02:40:55;;;;;;;;;;;;;;;20.16;100.00;101476.75;5027476;28;19975;-48
2022/08/26 02:43:20;;;;;;;;;;;;;;;20.18;100.00;101474.66;5034119;28;20321;-49
2022/08/26 02:45:46;;;;;;;;;;;;;;;20.18;100.00;101483.63;5036721;28;20396;-48
2022/08/26 02:48:13;;;;;;;;;;;;;;;20.19;100.00;101476.31;5035008;28;19992;-46
2022/08/26 02:50:38;;;;;;;;;;;;;;;20.19;100.00;101474.44;5036307;28;20027;-48
2022/08/26 02:53:04;;;;;;;;;;;;;;;20.18;100.00;101478.22;5028036;28;20379;-46
2022/08/26 02:55:30;;;;;;;;;;;;;;;20.17;100.00;101473.81;5017015;28;19919;-49
2022/08/26 02:57:55;;;;;;;;;;;;;;;20.15;100.00;101473.19;5016944;28;19913;-46
2022/08/26 03:00:20;;;;;;;;;;;;;;;20.15;100.00;101477.81;5013886;28;20064;-45
2022/08/26 03:02:46;;;;;;;;;;;;;;;20.13;100.00;101475.28;5014983;28;19935;-47
2022/08/26 03:05:11;;;;;;;;;;;;;;;20.11;100.00;101475.50;5016806;28;19964;-48
2022/08/26 03:07:36;;;;;;;;;;;;;;;20.11;100.00;101469.22;5016335;28;20224;-46
2022/08/26 03:10:03;;;;;;;;;;;;;;;20.11;100.00;101480.94;5017358;28;19913;-47
2022/08/26 03:12:28;;;;;;;;;;;;;;;20.09;100.00;101472.16;5015793;28;19909;-47
2022/08/26 03:14:53;;;;;;;;;;;;;;;20.06;100.00;101475.28;5014943;28;19966;-47
2022/08/26 03:17:19;;;;;;;;;;;;;;;20.05;100.00;101478.22;5032230;28;19909;-50
2022/08/26 03:19:45;;;;;;;;;;;;;;;20.02;100.00;101475.91;5034351;28;20345;-47
2022/08/26 03:22:10;;;;;;;;;;;;;;;20.00;100.00;101476.13;5036125;28;19908;-45
2022/08/26 03:24:36;;;;;;;;;;;;;;;19.99;100.00;101469.00;5036179;28;19908;-46
2022/08/26 03:27:01;;;;;;;;;;;;;;;19.98;100.00;101470.06;5036738;28;19909;-45
2022/08/26 03:32:10;;;;;;;;;;;;;;;19.94;100.00;101474.22;5027123;28;20335;-47
2022/08/26 03:34:36;;;;;;;;;;;;;;;19.93;100.00;101472.59;5015879;28;19905;-49
2022/08/26 03:37:01;;;;;;;;;;;;;;;19.96;100.00;101482.16;5016198;28;20348;-46
2022/08/26 03:39:27;;;;;;;;;;;;;;;19.97;100.00;101484.66;5016291;28;20389;-49
2022/08/26 03:41:52;;;;;;;;;;;;;;;19.98;100.00;101480.94;5016667;28;19909;-46
2022/08/26 03:44:17;;;;;;;;;;;;;;;19.98;100.00;101482.81;5016258;28;19935;-49
2022/08/26 03:46:43;;;;;;;;;;;;;;;19.96;100.00;101485.72;5014676;28;19916;-48
2022/08/26 03:49:08;;;;;;;;;;;;;;;19.95;100.00;101484.03;5015291;28;20176;-47
2022/08/26 03:51:34;;;;;;;;;;;;;;;19.96;100.00;101483.00;5015729;28;19909;-45
2022/08/26 03:54:01;;;;;;;;;;;;;;;19.90;100.00;101484.66;5015925;28;20395;-46
2022/08/26 03:56:27;;;;;;;;;;;;;;;19.85;100.00;101486.34;5015515;28;19970;-45
2022/08/26 03:58:52;;;;;;;;;;;;;;;19.81;100.00;101477.78;5016945;28;19908;-45
2022/08/26 04:01:17;;;;;;;;;;;;;;;19.79;100.00;101476.31;5019453;28;20036;-47
2022/08/26 04:03:58;;;;;;;;;;;;;;;19.79;100.00;101487.16;5017565;28;19924;-46
2022/08/26 04:06:30;;;;;;;;;;;;;;;19.82;100.00;101481.31;5018560;28;20015;-48
2022/08/26 04:08:57;;;;;;;;;;;;;;;19.83;100.00;101480.28;5019923;28;20110;-47
2022/08/26 04:11:24;;;;;;;;;;;;;;;19.82;100.00;101481.31;5019486;28;20411;-51
2022/08/26 04:13:49;;;;;;;;;;;;;;;19.81;100.00;101477.78;5020135;28;20284;-48
2022/08/26 04:16:15;;;;;;;;;;;;;;;19.80;100.00;101480.69;5019424;28;19908;-46
2022/08/26 04:18:41;;;;;;;;;;;;;;;19.79;100.00;101474.44;5018625;28;20055;-45
2022/08/26 04:21:06;;;;;;;;;;;;;;;19.81;100.00;101477.78;5019202;28;20357;-45
2022/08/26 04:23:31;;;;;;;;;;;;;;;19.84;100.00;101471.97;5019256;28;19908;-47
2022/08/26 04:25:57;;;;;;;;;;;;;;;19.87;100.00;101467.97;5019710;28;20003;-47
2022/08/26 04:28:22;;;;;;;;;;;;;;;19.85;100.00;101470.06;5019358;28;20003;-46
2022/08/26 04:30:48;;;;;;;;;;;;;;;19.86;100.00;101482.59;5019082;28;19916;-46
2022/08/26 04:33:13;;;;;;;;;;;;;;;19.90;100.00;101481.13;5018708;28;19913;-47
2022/08/26 04:35:38;;;;;;;;;;;;;;;19.89;100.00;101477.59;5018867;28;19921;-47
2022/08/26 04:38:03;;;;;;;;;;;;;;;19.91;100.00;101485.50;5019806;28;19916;-45
2022/08/26 04:40:29;;;;;;;;;;;;;;;19.90;100.00;101487.38;5018685;28;19965;-48
2022/08/26 04:42:54;;;;;;;;;;;;;;;19.87;100.00;101485.06;5019201;28;19913;-45
2022/08/26 04:45:19;;;;;;;;;;;;;;;19.89;100.00;101487.56;5018845;28;20850;-46
2022/08/26 04:47:45;;;;;;;;;;;;;;;19.87;100.00;101479.66;5017509;28;20475;-45
2022/08/26 04:50:11;;;;;;;;;;;;;;;19.89;100.00;101480.28;5019553;28;19962;-45
2022/08/26 04:52:36;;;;;;;;;;;;;;;19.93;100.00;101486.13;5018701;28;19912;-45
2022/08/26 04:55:02;;;;;;;;;;;;;;;19.96;100.00;101488.44;5019598;28;19990;-46
2022/08/26 04:57:27;;;;;;;;;;;;;;;19.99;100.00;101492.59;5018917;28;20262;-44
2022/08/26 04:59:52;;;;;;;;;;;;;;;19.94;100.00;101496.78;5018295;28;20064;-46
2022/08/26 05:02:18;;;;;;;;;;;;;;;19.96;100.00;101491.16;5016680;28;19920;-44
2022/08/26 05:04:43;;;;;;;;;;;;;;;19.97;100.00;101495.50;5018809;28;19917;-45
2022/08/26 05:07:09;;;;;;;;;;;;;;;19.98;100.00;101499.91;5018924;28;19917;-49
2022/08/26 05:09:34;;;;;;;;;;;;;;;19.97;100.00;101492.78;5018445;28;19912;-45
2022/08/26 05:11:59;;;;;;;;;;;;;;;19.99;100.00;101500.72;5018089;28;19916;-43
2022/08/26 05:14:25;;;;;;;;;;;;;;;19.99;100.00;101498.84;5018162;28;19909;-45
2022/08/26 05:16:51;;;;;;;;;;;;;;;19.99;100.00;101492.59;5016390;28;19936;-43
2022/08/26 05:19:16;;;;;;;;;;;;;;;19.99;100.00;101498.84;5018095;28;19909;-45
2022/08/26 05:21:43;;;;;;;;;;;;;;;20.01;100.00;101498.63;5017553;28;20010;-46
2022/08/26 05:24:10;;;;;;;;;;;;;;;20.01;100.00;101487.78;5018429;28;20286;-48
2022/08/26 05:26:35;;;;;;;;;;;;;;;19.97;100.00;101491.97;5018044;28;19909;-43
2022/08/26 05:29:00;;;;;;;;;;;;;;;19.96;100.00;101504.69;5018625;28;20055;-44
2022/08/26 05:31:27;;;;;;;;;;;;;;;20.00;100.00;101494.28;5016403;28;20398;-48
2022/08/26 05:33:53;;;;;;;;;;;;;;;20.03;100.00;101496.56;5017994;28;20181;-43
2022/08/26 05:36:20;;;;;;;;;;;;;;;20.06;100.00;101506.97;5018086;28;20272;-45
2022/08/26 05:38:46;;;;;;;;;;;;;;;20.11;100.00;101499.06;5018020;28;20345;-46
2022/08/26 05:41:19;;;;;;;;;;;;;;;20.13;100.00;101500.53;5018154;28;19998;-44
2022/08/26 05:43:44;;;;;;;;;;;;;;;20.20;100.00;101505.97;5018222;28;19912;-46
2022/08/26 05:46:10;;;;;;;;;;;;;;;20.22;100.00;101505.75;5016748;28;19959;-43
2022/08/26 05:48:35;;;;;;;;;;;;;;;20.20;100.00;101515.97;5017519;28;19917;-43
2022/08/26 05:51:02;;;;;;;;;;;;;;;20.22;100.00;101505.75;5018309;28;20393;-47
2022/08/26 05:53:27;;;;;;;;;;;;;;;20.22;100.00;101514.72;5017306;28;19913;-45
2022/08/26 05:55:53;;;;;;;;;;;;;;;20.17;100.00;101519.09;5025355;28;19917;-45
2022/08/26 05:58:20;;;;;;;;;;;;;;;20.18;100.00;101518.91;5037947;28;19908;-46
2022/08/26 06:00:47;;;;;;;;;;;;;;;20.26;100.00;101526.81;5036813;28;19909;-46
2022/08/26 06:03:13;;;;;;;;;;;;;;;20.32;100.00;101522.44;5036066;28;19909;-47
2022/08/26 06:05:38;;;;;;;;;;;;;;;20.31;100.00;101528.91;5017715;28;20003;-47
2022/08/26 06:08:10;;;;;;;;;;;;;;;20.33;100.00;101534.94;5035005;28;19909;-46
2022/08/26 06:10:36;;;;;;;;;;;;;;;20.39;100.00;101536.81;5037687;28;20276;-47
2022/08/26 06:13:02;;;;;;;;;;;;;;;20.46;100.00;101545.78;5036373;28;20124;-46
2022/08/26 06:15:27;;;;;;;;;;;;;;;20.49;100.00;101542.66;5036798;28;19915;-45
2022/08/26 06:17:52;;;;;;;;;;;;;;;20.49;100.00;101542.66;5035505;28;20342;-46
2022/08/26 06:20:17;;;;;;;;;;;;;;;20.44;100.00;101549.78;5037189;28;19927;-48
2022/08/26 06:25:38;;;;;;;;;;;;;;;20.50;100.00;101560.63;5023433;28;20069;-48
2022/08/26 06:28:04;;;;;;;;;;;;;;;20.53;100.00;101555.81;5017560;28;19963;-48
2022/08/26 06:30:30;;;;;;;;;;;;;;;20.55;100.00;101549.13;5016826;28;19913;-48
2022/08/26 06:32:56;;;;;;;;;;;;;;;20.54;100.00;101554.78;5015951;28;19949;-47
2022/08/26 06:35:21;;;;;;;;;;;;;;;20.54;100.00;101557.50;5015219;28;19936;-46
2022/08/26 06:37:46;;;;;;;;;;;;;;;20.50;100.00;101566.06;5017312;28;19920;-47
2022/08/26 06:40:11;;;;;;;;;;;;;;;20.52;100.00;101567.69;5016555;28;19992;-45
2022/08/26 06:42:37;;;;;;;;;;;;;;;20.49;100.00;101574.41;5016743;28;20767;-45
2022/08/26 06:45:02;;;;;;;;;;;;;;;20.50;100.00;101571.47;5015644;28;20012;-48
2022/08/26 06:47:28;;;;;;;;;;;;;;;20.58;100.00;101561.44;5014239;28;19992;-47
2022/08/26 06:49:53;;;;;;;;;;;;;;;20.62;100.00;101563.56;5016992;28;19924;-46
2022/08/26 06:52:18;;;;;;;;;;;;;;;20.64;100.00;101575.03;5015089;28;19920;-45
2022/08/26 06:54:43;;;;;;;;;;;;;;;20.63;100.00;101567.94;5016893;28;19909;-48
2022/08/26 06:57:09;;;;;;;;;;;;;;;20.67;100.00;101569.19;5015784;28;19983;-44
2022/08/26 06:59:34;;;;;;;;;;;;;;;20.75;100.00;101573.56;5016260;28;19919;-49
2022/08/26 07:02:00;;;;;;;;;;;;;;;20.83;100.00;101576.06;5014592;28;19916;-48
2022/08/26 07:04:26;;;;;;;;;;;;;;;20.92;100.00;101571.22;5015523;28;20372;-46
2022/08/26 07:06:52;;;;;;;;;;;;;;;20.97;100.00;101570.59;5015831;28;19912;-46
2022/08/26 07:09:17;;;;;;;;;;;;;;;20.98;100.00;101573.09;5016352;28;19921;-46
2022/08/26 07:11:43;;;;;;;;;;;;;;;21.02;100.00;101568.91;5016281;28;19909;-45
2022/08/26 07:14:09;;;;;;;;;;;;;;;21.09;100.00;101577.03;5015349;28;20549;-46
2022/08/26 07:16:34;;;;;;;;;;;;;;;21.13;100.00;101582.88;5014807;28;20365;-48
2022/08/26 07:18:59;;;;;;;;;;;;;;;21.16;100.00;101577.84;5016128;28;20387;-46
2022/08/26 07:21:25;;;;;;;;;;;;;;;21.23;100.00;101575.97;5015378;28;19952;-46
2022/08/26 07:23:51;;;;;;;;;;;;;;;21.21;100.00;101578.03;5015656;28;19916;-46
2022/08/26 07:26:21;;;;;;;;;;;;;;;21.28;100.00;101588.88;5015891;28;19909;-50
2022/08/26 07:28:47;;;;;;;;;;;;;;;21.26;100.00;101577.41;5016160;28;19909;-47
2022/08/26 07:31:14;;;;;;;;;;;;;;;21.32;100.00;101578.44;5014117;28;20298;-49
2022/08/26 07:33:40;;;;;;;;;;;;;;;21.39;100.00;101582.78;5014683;28;20414;-49
2022/08/26 07:36:06;;;;;;;;;;;;;;;21.45;100.00;101585.69;5015692;28;19909;-46
2022/08/26 07:38:31;;;;;;;;;;;;;;;21.30;100.00;101585.97;5016297;28;19909;-49
2022/08/26 07:40:57;;;;;;;;;;;;;;;21.31;100.00;101588.47;5016284;28;20442;-50
2022/08/26 07:43:22;;;;;;;;;;;;;;;21.30;100.00;101588.69;5014316;28;20329;-49
2022/08/26 07:45:48;;;;;;;;;;;;;;;21.40;100.00;101586.34;5014362;28;20278;-48
2022/08/26 07:48:14;;;;;;;;;;;;;;;21.46;100.00;101600.97;5015041;28;19951;-49
2022/08/26 07:50:40;;;;;;;;;;;;;;;21.54;100.00;101595.31;5015175;28;20220;-48
2022/08/26 07:53:05;;;;;;;;;;;;;;;21.68;100.00;101594.19;5015954;28;19913;-44
2022/08/26 07:55:31;;;;;;;;;;;;;;;21.79;100.00;101603.53;5016060;28;19909;-45
2022/08/26 07:57:56;;;;;;;;;;;;;;;21.84;100.00;101603.72;5015999;28;20287;-46
2022/08/26 08:00:22;;;;;;;;;;;;;;;21.90;100.00;101607.47;5015102;28;19909;-48
2022/08/26 08:02:48;;;;;;;;;;;;;;;21.87;100.00;101592.41;5012956;28;19932;-47
2022/08/26 08:05:15;;;;;;;;;;;;;;;21.93;100.00;101604.31;5015732;28;19921;-47
2022/08/26 08:07:40;;;;;;;;;;;;;;;22.00;100.00;101596.97;5015157;28;20169;-45
2022/08/26 08:10:06;;;;;;;;;;;;;;;22.07;100.00;101600.47;5015648;28;19913;-48
2022/08/26 08:12:31;;;;;;;;;;;;;;;22.14;100.00;101601.25;5015998;28;20014;-48
2022/08/26 08:14:56;;;;;;;;;;;;;;;22.20;100.00;101606.84;5025350;28;19942;-49
2022/08/26 08:17:22;;;;;;;;;;;;;;;22.21;100.00;101601.19;5033065;28;19916;-48
2022/08/26 08:19:47;;;;;;;;;;;;;;;22.25;100.00;101605.16;5035864;28;19909;-48
2022/08/26 08:22:12;;;;;;;;;;;;;;;22.26;100.00;101606.00;5035089;28;19955;-48
2022/08/26 08:24:38;;;;;;;;;;;;;;;22.35;100.00;101605.53;5035537;28;20300;-45
2022/08/26 08:27:03;;;;;;;;;;;;;;;22.38;100.00;101608.84;5036181;28;19909;-46
2022/08/26 08:29:28;;;;;;;;;;;;;;;22.33;100.00;101604.06;5035233;28;20104;-45
2022/08/26 08:31:57;;;;;;;;;;;;;;;22.31;100.00;101609.72;5026442;28;19909;-46
2022/08/26 08:34:23;;;;;;;;;;;;;;;22.29;100.00;101622.72;5015422;28;19927;-45
2022/08/26 08:36:49;;;;;;;;;;;;;;;22.17;100.00;101614.41;5012868;28;20156;-47
2022/08/26 08:39:14;;;;;;;;;;;;;;;22.14;100.00;101614.84;5016230;28;20144;-46
2022/08/26 08:41:48;;;;;;;;;;;;;;;22.14;100.00;101625.72;5014999;28;20003;-46
2022/08/26 08:44:20;;;;;;;;;;;;;;;22.19;100.00;101618.81;5015286;28;19916;-45
2022/08/26 08:46:47;;;;;;;;;;;;;;;22.26;100.00;101619.59;5016849;28;20376;-49
2022/08/26 08:49:13;;;;;;;;;;;;;;;22.38;100.00;101609.69;5019301;28;19966;-50
2022/08/26 08:51:44;;;;;;;;;;;;;;;22.40;99.83;101621.19;5018682;28;19917;-45
2022/08/26 08:54:10;;;;;;;;;;;;;;;22.41;99.69;101614.69;5018738;28;20421;-47
2022/08/26 08:56:37;;;;;;;;;;;;;;;22.41;99.46;101614.69;5001112;28;19916;-47
2022/08/26 08:59:05;;;;;;;;;;;;;;;22.43;99.55;101617.19;5019859;28;20116;-47
2022/08/26 09:01:43;;;;;;;;;;;;;;;22.34;99.86;101614.75;5014896;28;19959;-46
2022/08/26 09:04:16;;;;;;;;;;;;;;;22.26;100.00;101617.69;5018180;28;19921;-48
2022/08/26 09:06:41;;;;;;;;;;;;;;;22.27;100.00;101619.38;5018474;28;19916;-49
2022/08/26 09:09:09;;;;;;;;;;;;;;;22.29;100.00;101619.19;5018188;28;19913;-47
2022/08/26 09:11:35;;;;;;;;;;;;;;;22.29;99.96;101614.56;5018509;28;19916;-47
2022/08/26 09:14:00;;;;;;;;;;;;;;;22.29;100.00;101625.44;5018111;28;19909;-45
2022/08/26 09:16:55;;;;;;;;;;;;;;;22.24;99.45;101619.81;5028310;28;19913;-45
2022/08/26 09:19:56;;;;;;;;;;;;;;;22.16;100.00;101634.50;4982163;28;19902;-43
2022/08/26 09:22:32;;;;;;;;;;;;;;;22.24;100.00;101632.59;5013530;28;20355;-48
2022/08/26 09:24:57;;;;;;;;;;;;;;;22.17;100.00;101628.00;5032432;28;19924;-45
2022/08/26 09:27:39;;;;;;;;;;;;;;;22.16;100.00;101628.22;5029359;28;19924;-45
2022/08/26 09:30:05;;;;;;;;;;;;;;;22.15;100.00;101627.41;5048653;28;20407;-45
2022/08/26 09:32:30;;;;;;;;;;;;;;;22.15;100.00;101630.13;5035698;28;19909;-46
2022/08/26 09:34:56;;;;;;;;;;;;;;;22.10;99.57;101624.50;5037033;28;20220;-49
2022/08/26 09:37:34;;;;;;;;;;;;;;;22.21;100.00;101624.84;5035086;28;20012;-46
2022/08/26 09:40:14;;;;;;;;;;;;;;;22.36;98.99;101630.84;5034297;28;19919;-46
2022/08/26 09:42:39;;;;;;;;;;;;;;;22.41;98.58;101639.19;5033331;28;19953;-50
2022/08/26 09:45:09;;;;;;;;;;;;;;;22.41;98.66;101632.91;5035933;28;20310;-45
2022/08/26 09:47:51;;;;;;;;;;;;;;;22.37;97.81;101635.25;5031396;28;20480;-46
2022/08/26 09:50:22;;;;;;;;;;;;;;;22.34;98.57;101636.50;5035653;28;19955;-47
2022/08/26 09:53:02;;;;;;;;;;;;;;;22.27;96.74;101635.69;5031460;28;19980;-45
2022/08/26 09:55:27;;;;;;;;;;;;;;;22.17;98.71;101636.19;5033974;28;19908;-45
2022/08/26 09:57:53;;;;;;;;;;;;;;;22.05;97.54;101640.66;5034810;28;20000;-43
2022/08/26 10:00:22;;;;;;;;;;;;;;;22.02;98.21;101640.25;5035489;28;19987;-44
2022/08/26 10:02:47;;;;;;;;;;;;;;;21.81;98.09;101639.53;5035425;28;19913;-46
2022/08/26 10:05:15;;;;;;;;;;;;;;;21.78;99.19;101631.81;5035740;28;19962;-45
2022/08/26 10:07:44;;;;;;;;;;;;;;;21.80;98.48;101635.13;5035167;28;19921;-44
2022/08/26 10:10:13;;;;;;;;;;;;;;;21.83;98.33;101639.31;5035637;28;19979;-44
2022/08/26 10:12:44;;;;;;;;;;;;;;;21.80;98.88;101640.56;5032586;28;19916;-48
2022/08/26 10:15:12;;;;;;;;;;;;;;;21.77;99.16;101638.28;5032432;28;20039;-45
2022/08/26 10:17:37;;;;;;;;;;;;;;;21.83;98.19;101647.47;5032950;28;19920;-47
2022/08/26 10:20:07;;;;;;;;;;;;;;;21.82;98.64;101643.06;5036927;28;19908;-45
2022/08/26 10:22:41;;;;;;;;;;;;;;;21.81;99.08;101642.25;5033327;28;19915;-46
2022/08/26 10:25:08;;;;;;;;;;;;;;;21.80;98.72;101648.72;5033700;28;20661;-45
2022/08/26 10:27:39;;;;;;;;;;;;;;;21.71;98.93;101645.44;5034874;28;19908;-47
2022/08/26 10:30:19;;;;;;;;;;;;;;;21.71;99.19;101652.75;5035010;28;19917;-45
2022/08/26 10:32:47;;;;;;;;;;;;;;;21.70;100.00;101646.47;5033647;28;19909;-47
2022/08/26 10:35:13;;;;;;;;;;;;;;;21.67;99.33;101646.88;5036714;28;19930;-46
2022/08/26 10:37:45;;;;;;;;;;;;;;;21.62;98.74;101646.69;5036547;28;20005;-45
2022/08/26 10:40:18;;;;;;;;;;;;;;;21.60;99.20;101646.91;5035795;28;20314;-45
2022/08/26 10:42:47;;;;;;;;;;;;;;;21.63;99.22;101642.13;5036299;28;19981;-44
2022/08/26 10:45:15;;;;;;;;;;;;;;;21.61;99.55;101645.06;5035331;28;19990;-43
2022/08/26 10:48:00;;;;;;;;;;;;;;;21.56;100.00;101639.44;5036022;28;19916;-44
2022/08/26 10:50:31;;;;;;;;;;;;;;;21.61;100.00;101647.78;5034079;28;20070;-46
2022/08/26 10:53:15;;;;;;;;;;;;;;;21.66;100.00;101644.41;5034479;28;19917;-48
2022/08/26 10:55:52;;;;;;;;;;;;;;;21.73;100.00;101637.06;5025828;28;20449;-45
2022/08/26 10:58:27;;;;;;;;;;;;;;;21.78;100.00;101634.53;5034674;28;19913;-47
2022/08/26 11:03:49;;;;;;;;;;;;;;;21.86;98.32;101642.44;5035053;28;19966;-46
2022/08/26 11:06:19;;;;;;;;;;;;;;;21.93;98.59;101639.69;5033397;28;19912;-46
2022/08/26 11:08:51;;;;;;;;;;;;;;;21.90;98.29;101635.50;5033475;28;19985;-45
2022/08/26 11:11:35;;;;;;;;;;;;;;;21.93;98.29;101639.69;5035191;28;19960;-45
2022/08/26 11:14:03;;;;;;;;;;;;;;;21.90;98.92;101657.25;5034395;28;20003;-50
2022/08/26 11:16:34;;;;;;;;;;;;;;;21.87;99.28;101657.69;5034095;28;20580;-46
2022/08/26 11:18:59;;;;;;;;;;;;;;;21.87;99.57;101646.81;5035324;28;19913;-49
2022/08/26 11:21:42;;;;;;;;;;;;;;;21.88;99.53;101648.50;5034299;28;19995;-47
2022/08/26 11:24:08;;;;;;;;;;;;;;;21.91;99.84;101650.78;5035960;28;19913;-45
2022/08/26 11:26:33;;;;;;;;;;;;;;;21.93;98.94;101651.38;5036952;28;19966;-45
2022/08/26 11:28:59;;;;;;;;;;;;;;;21.94;98.60;101641.34;5036828;28;19919;-50
2022/08/26 11:31:24;;;;;;;;;;;;;;;21.88;99.02;101637.59;5033877;28;20407;-48
2022/08/26 11:33:49;;;;;;;;;;;;;;;21.86;98.99;101638.84;5035795;28;19909;-51
2022/08/26 11:36:32;;;;;;;;;;;;;;;21.88;99.89;101636.78;5033508;28;20295;-48
2022/08/26 11:38:59;;;;;;;;;;;;;;;21.84;98.88;101640.97;5036799;28;19955;-46
2022/08/26 11:41:28;;;;;;;;;;;;;;;21.85;98.89;101631.78;5020189;28;19959;-46
2022/08/26 11:43:54;;;;;;;;;;;;;;;21.83;98.84;101642.03;5032834;28;20394;-45
2022/08/26 11:46:27;;;;;;;;;;;;;;;21.86;98.60;101645.16;5024455;28;20024;-44
2022/08/26 11:49:05;;;;;;;;;;;;;;;21.86;98.36;101644.28;5015090;28;20010;-48
2022/08/26 11:51:31;;;;;;;;;;;;;;;21.90;97.79;101643.66;5016167;28;19908;-46
2022/08/26 11:54:10;;;;;;;;;;;;;;;21.90;97.80;101640.94;5016059;28;19995;-46
2022/08/26 11:56:36;;;;;;;;;;;;;;;21.95;97.48;101648.44;5014692;28;19916;-47
2022/08/26 11:59:05;;;;;;;;;;;;;;;22.00;97.92;101643.19;5016331;28;19916;-46
2022/08/26 12:01:34;;;;;;;;;;;;;;;22.07;98.18;101635.81;5026572;28;19920;-48
2022/08/26 12:03:59;;;;;;;;;;;;;;;22.15;96.46;101641.00;5015520;28;20118;-47
2022/08/26 12:06:27;;;;;;;;;;;;;;;22.17;96.54;101640.78;5032259;28;20395;-45
2022/08/26 12:08:53;;;;;;;;;;;;;;;22.17;96.53;101638.91;5034629;28;19979;-47
2022/08/26 12:11:20;;;;;;;;;;;;;;;22.21;95.92;101636.56;5036141;28;19909;-47
2022/08/26 12:13:56;;;;;;;;;;;;;;;22.23;95.81;101633.63;5034726;28;20012;-49
2022/08/26 12:16:22;;;;;;;;;;;;;;;22.26;94.79;101630.47;5026210;28;20036;-47
2022/08/26 12:18:48;;;;;;;;;;;;;;;22.33;94.60;101640.28;5035891;28;20208;-46
2022/08/26 12:21:18;;;;;;;;;;;;;;;22.22;94.89;101638.25;5018222;28;19956;-48
2022/08/26 12:23:45;;;;;;;;;;;;;;;22.11;95.16;101637.03;5019963;28;19940;-49
2022/08/26 12:26:29;;;;;;;;;;;;;;;22.08;95.42;101636.66;5027843;28;19917;-46
2022/08/26 12:28:56;;;;;;;;;;;;;;;22.05;95.04;101642.56;5036722;28;19921;-46
2022/08/26 12:31:27;;;;;;;;;;;;;;;21.98;95.84;101646.13;5035252;28;19970;-49
2022/08/26 12:33:54;;;;;;;;;;;;;;;21.92;95.42;101651.59;5039138;28;20370;-50
2022/08/26 12:36:21;;;;;;;;;;;;;;;21.87;95.49;101652.25;5034242;28;20056;-45
2022/08/26 12:38:47;;;;;;;;;;;;;;;21.79;96.48;101655.22;5019707;28;19995;-47